Latest Coastal Weather Observations for Adele Island

IDW60701

Issued at 9:52 am WST Saturday 25 April 2015 (issued every 10 minutes, with the page automatically refreshed every 10 minutes)

About coastal observations | Map of coastal stations | Coastal observations for WA | Marine services | Other Formats
Station Details ID: 200735 Name: ADELE ISLAND Lat: -15.51 Lon: 123.16 Height: 4.6 m
Data from the previous 72 hours. | See also: Recent months for locations in Western Australia
Date/Time
WST
Temp

°C
Wind Pressure Rain
since 9am
mm
Weather Cloud Vis
km
Sea
Height
m
Swell
Dir
 
Speed
knots
Gust
knots
hPa Trend Height
m
Period
s
Dir
25/09:30am 29.8 ENE 5 7 1011.8 - - - - - - - - -
25/09:00am 29.3 ENE 4 5 1011.7 - - - - - - - - -
25/08:30am 29.3 NNE 5 6 1011.4 - - - - - - - - -
25/08:00am 29.5 NE 5 7 1011.3 - - - - - - - - -
25/07:30am 29.0 NNE 5 6 1011.4 - - - - - - - - -
25/07:00am 29.2 NNE 6 7 1011.3 - - - - - - - - -
25/06:30am 28.9 NNE 5 6 1011.2 - - - - - - - - -
25/06:00am 28.3 CALM 0 3 1010.7 - - - - - - - - -
25/05:30am 28.1 NE 2 3 1010.4 - - - - - - - - -
25/05:00am 28.4 CALM 0 0 1010.2 - - - - - - - - -
25/04:30am 28.4 CALM 0 0 1010.1 - - - - - - - - -
25/04:00am 28.4 CALM 0 0 1010.2 - - - - - - - - -
25/03:30am 28.4 CALM 0 0 1010.1 - - - - - - - - -
25/03:00am 28.3 CALM 0 0 1009.9 - - - - - - - - -
25/02:30am 28.4 CALM 0 0 1009.9 - - - - - - - - -
25/02:00am 28.6 CALM 0 0 1010.2 - - - - - - - - -
25/01:30am 28.7 SE 4 5 1010.7 - - - - - - - - -
25/01:00am 27.9 SE 5 6 1010.9 - - - - - - - - -
25/12:30am 27.7 SE 6 7 1010.8 - - - - - - - - -
25/12:00am 27.6 SE 6 6 1011.2 - - - - - - - - -
 
Date/Time
WST
Temp

°C
Wind Pressure Rain
since 9am
mm
Weather Cloud Vis
km
Sea
Height
m
Swell
Dir
 
Speed
knots
Gust
knots
hPa Trend Height
m
Period
s
Dir
24/11:30pm 27.7 SE 6 6 1011.3 - - - - - - - - -
24/11:00pm 27.7 SE 5 6 1011.2 - - - - - - - - -
24/10:30pm 28.4 ESE 4 5 1011.4 - - - - - - - - -
24/10:00pm 28.4 SE 4 4 1011.5 - - - - - - - - -
24/09:30pm 28.1 ESE 4 5 1011.5 - - - - - - - - -
24/09:00pm 28.1 SE 5 5 1011.7 - - - - - - - - -
24/08:30pm 28.1 ESE 5 5 1011.6 - - - - - - - - -
24/08:00pm 28.4 SE 4 5 1011.7 - - - - - - - - -
24/07:30pm 28.6 SSE 4 5 1011.2 - - - - - - - - -
24/07:00pm 28.5 CALM 0 0 1011.0 - - - - - - - - -
24/06:30pm 28.5 CALM 0 0 1010.8 - - - - - - - - -
24/06:00pm 28.8 E 4 4 1010.3 - - - - - - - - -
24/05:30pm 28.9 ENE 5 6 1010.0 - - - - - - - - -
24/05:00pm 29.0 ENE 5 7 1009.7 - - - - - - - - -
24/04:30pm 29.0 E 6 7 1009.5 - - - - - - - - -
24/04:00pm 29.2 E 5 6 1009.2 - - - - - - - - -
24/03:30pm 29.1 ENE 6 7 1009.0 - - - - - - - - -
24/03:00pm 29.3 NE 7 8 1008.8 - - - - - - - - -
24/02:30pm 30.1 NE 8 10 1009.0 - - - - - - - - -
24/02:00pm 29.7 NE 7 9 1009.2 - - - - - - - - -
24/01:30pm 29.9 NE 8 9 1009.3 - - - - - - - - -
24/01:00pm 29.5 NE 8 9 1009.5 - - - - - - - - -
24/12:30pm 29.5 NNE 8 9 1009.9 - - - - - - - - -
24/12:00pm 29.5 NE 8 9 1010.2 - - - - - - - - -
24/11:30am 29.7 NNE 8 10 1010.4 - - - - - - - - -
24/11:00am 30.1 NE 9 11 1010.7 - - - - - - - - -
24/10:30am 29.4 NE 9 11 1011.0 - - - - - - - - -
24/10:00am 29.0 NE 11 13 1011.1 - - - - - - - - -
24/09:30am 29.0 NE 12 14 1011.0 - - - - - - - - -
24/09:00am 29.0 NE 12 14 1010.8 - - - - - - - - -
24/08:30am 29.0 NE 11 13 1010.8 - - - - - - - - -
24/08:00am 28.5 NE 12 15 1010.9 - - - - - - - - -
24/07:30am 28.5 NE 12 14 1010.7 - - - - - - - - -
24/07:00am 28.3 NE 13 15 1010.5 - - - - - - - - -
24/06:30am 28.1 NE 13 15 1010.1 - - - - - - - - -
24/06:00am 28.1 NE 13 15 1009.8 - - - - - - - - -
24/05:30am 28.2 NNE 12 15 1009.6 - - - - - - - - -
24/05:00am 28.3 N 11 13 1009.3 - - - - - - - - -
24/04:30am 28.4 N 10 11 1009.2 - - - - - - - - -
24/04:00am 28.4 N 9 11 1009.3 - - - - - - - - -
24/03:30am 28.4 N 9 11 1009.4 - - - - - - - - -
24/03:00am 28.4 N 9 11 1009.5 - - - - - - - - -
24/02:30am 28.1 N 9 11 1009.4 - - - - - - - - -
24/02:00am 28.1 N 12 14 1009.6 - - - - - - - - -
24/01:30am 27.9 N 13 15 1009.9 - - - - - - - - -
24/01:00am 27.9 N 11 13 1010.1 - - - - - - - - -
24/12:30am 27.9 N 13 15 1010.5 - - - - - - - - -
24/12:00am 27.7 N 13 15 1010.8 - - - - - - - - -
 
Date/Time
WST
Temp

°C
Wind Pressure Rain
since 9am
mm
Weather Cloud Vis
km
Sea
Height
m
Swell
Dir
 
Speed
knots
Gust
knots
hPa Trend Height
m
Period
s
Dir
23/11:30pm 27.7 NNE 13 15 1010.9 - - - - - - - - -
23/11:00pm 27.4 N 12 13 1010.9 - - - - - - - - -
23/10:30pm 27.5 NNE 10 13 1010.8 - - - - - - - - -
23/10:00pm 27.4 NNE 11 13 1010.9 - - - - - - - - -
23/09:30pm 27.2 N 11 13 1010.9 - - - - - - - - -
23/09:00pm 26.9 N 12 14 1010.9 - - - - - - - - -
23/08:30pm 27.0 N 13 15 1011.2 - - - - - - - - -
23/08:00pm 27.0 N 13 15 1010.9 - - - - - - - - -
23/07:30pm 27.1 N 15 17 1011.1 - - - - - - - - -
23/07:00pm 26.8 NNW 17 23 1010.9 - - - - - - - - -
23/06:47pm 26.9 N 15 23 1010.4 - - - - - - - - -
23/06:30pm 27.6 N 11 13 1010.4 - - - - - - - - -
23/06:00pm 28.5 NNE 10 12 1010.2 - - - - - - - - -
23/05:30pm 28.1 NNE 8 9 1009.9 - - - - - - - - -
23/05:00pm 27.7 NNE 8 - 1009.4 - - - - - - - - -
23/04:30pm 27.8 NE 5 7 1008.8 - - - - - - - - -
23/04:00pm 27.3 NNE 6 7 1008.6 - - - - - - - - -
23/03:30pm 26.9 N 4 5 1008.6 - - - - - - - - -
23/03:00pm 25.9 N 7 9 1008.7 - - - - - - - - -
23/02:30pm 25.2 N 10 13 1009.0 - - - - - - - - -
23/02:00pm 24.9 NNW 14 27 1008.8 - - - - - - - - -
23/01:58pm 26.0 NNW 11 20 1008.8 - - - - - - - - -
23/01:30pm 25.6 NNW 6 8 1008.7 - - - - - - - - -
23/01:00pm 26.7 N 14 21 1009.0 - - - - - - - - -
23/12:30pm 28.2 NE 10 15 1009.1 - - - - - - - - -
23/12:00pm 26.7 NNW 7 11 1009.6 - - - - - - - - -
23/11:30am 26.3 NNW 13 16 1009.9 - - - - - - - - -
23/11:00am 25.6 NW 21 28 1010.1 - - - - - - - - -
23/10:48am 24.9 NW 24 28 1010.3 - - - - - - - - -
23/10:30am 25.5 NNW 18 28 1010.8 - - - - - - - - -
23/10:28am 25.9 NNW 16 28 1010.7 - - - - - - - - -
23/10:00am 28.7 NE 15 17 1010.8 - - - - - - - - -
23/09:30am 28.7 NE 15 19 1010.8 - - - - - - - - -
23/09:00am 28.6 NE 17 20 1010.6 - - - - - - - - -
23/08:30am 28.6 NE 14 17 1010.6 - - - - - - - - -
23/08:00am 28.7 NE 16 19 1010.4 - - - - - - - - -
23/07:30am 28.7 NE 16 19 1010.4 - - - - - - - - -
23/07:00am 28.7 NE 15 18 1010.5 - - - - - - - - -
23/06:30am 28.6 NE 15 18 1009.9 - - - - - - - - -
23/06:00am 28.6 NNE 15 17 1009.8 - - - - - - - - -
23/05:30am 28.8 NNE 15 18 1009.6 - - - - - - - - -
23/05:00am 28.8 NNE 15 18 1009.2 - - - - - - - - -
23/04:30am 28.6 NNE 16 19 1009.0 - - - - - - - - -
23/04:00am 28.6 NNE 16 19 1008.6 - - - - - - - - -
23/03:30am 28.6 NNE 17 20 1008.6 - - - - - - - - -
23/03:00am 28.7 NNE 18 23 1008.8 - - - - - - - - -
23/02:30am 28.6 NNE 18 21 1008.8 - - - - - - - - -
23/02:00am 28.7 NNE 18 23 1009.0 - - - - - - - - -
23/01:30am 28.7 NNE 20 24 1009.1 - - - - - - - - -
23/01:00am 28.5 NNE 21 25 1008.9 - - - - - - - - -
23/12:30am 28.5 NNE 21 25 1009.6 - - - - - - - - -
23/12:00am 28.6 NNE 19 23 1010.1 - - - - - - - - -
 
Date/Time
WST
Temp

°C
Wind Pressure Rain
since 9am
mm
Weather Cloud Vis
km
Sea
Height
m
Swell
Dir
 
Speed
knots
Gust
knots
hPa Trend Height
m
Period
s
Dir
22/11:30pm 28.4 NNE 17 19 1010.7 - - - - - - - - -
22/11:00pm 28.4 NE 18 21 1010.8 - - - - - - - - -
22/10:30pm 28.3 NE 18 21 1010.8 - - - - - - - - -
22/10:00pm 28.5 NE 16 21 1011.0 - - - - - - - - -
22/09:41pm 28.5 NE 15 21 1011.1 - - - - - - - - -
22/09:30pm 27.3 NE 8 9 1011.2 - - - - - - - - -
22/09:00pm 26.6 NE 7 8 1011.2 - - - - - - - - -
22/08:30pm 26.7 NE 5 7 1011.3 - - - - - - - - -
22/08:00pm 26.6 NE 5 8 1011.3 - - - - - - - - -
22/07:30pm 26.3 NE 5 6 1011.2 - - - - - - - - -
22/07:00pm 26.1 NNE 3 5 1011.2 - - - - - - - - -
22/06:30pm 25.9 NNE 3 3 1010.8 - - - - - - - - -
22/06:00pm 26.0 N 4 6 1010.5 - - - - - - - - -
22/05:30pm 26.1 N 8 9 1010.3 - - - - - - - - -
22/05:00pm 25.9 NNE 12 13 1010.0 - - - - - - - - -
22/04:30pm 25.9 N 13 14 1010.0 - - - - - - - - -
22/04:00pm 25.5 N 12 15 1009.7 - - - - - - - - -
22/03:30pm 25.0 N 13 16 1009.2 - - - - - - - - -
22/03:00pm 24.7 N 8 11 1009.4 - - - - - - - - -
22/02:30pm 24.4 NE 6 8 1009.5 - - - - - - - - -
22/02:00pm 24.9 NNE 7 9 1010.0 - - - - - - - - -
22/01:30pm 25.6 NW 12 24 1010.6 - - - - - - - - -
22/01:23pm 25.7 N 18 29 1011.4 - - - - - - - - -
22/01:18pm 26.1 NNE 14 27 1011.4 - - - - - - - - -
22/01:00pm 28.9 NE 15 18 1010.9 - - - - - - - - -
22/12:30pm 28.6 NE 16 19 1010.8 - - - - - - - - -
22/12:00pm 28.9 NE 18 21 1010.9 - - - - - - - - -
22/11:30am 29.1 NE 18 21 1011.2 - - - - - - - - -
22/11:00am 29.1 NE 18 21 1011.1 - - - - - - - - -
22/10:30am 28.8 ENE 17 21 1011.1 - - - - - - - - -
22/10:00am 28.7 NE 17 21 1011.4 - - - - - - - - -

Other Formats:

Comma delimited format used in spreadsheet applications
http://www.bom.gov.au/fwo/IDW60701/IDW60701.94210.axf

JavaScript Object Notation format (JSON) in row-major order
http://www.bom.gov.au/fwo/IDW60701/IDW60701.94210.json